Time;durP1;ratioP1;P1;durP2;ratioP2;P2;SDS_P1;SDS_P2;PMS_P1;PMS_P2;Temp;Humidity;BMP_temperature;BMP_pressure;BME280_temperature;BME280_humidity;BME280_pressure;Samples;Min_cycle;Max_cycle;Signal;HPM_P1;HPM_P2
2023/01/11 00:01:04;;;;;;;4.83;2.30;;;12.40;99.90;;;;;;5095966;28;20172;-69
2023/01/11 00:03:31;;;;;;;4.03;2.00;;;12.50;99.90;;;;;;5097123;28;20176;-68
2023/01/11 00:05:57;;;;;;;5.90;2.37;;;12.50;99.90;;;;;;5097273;28;20164;-68
2023/01/11 00:08:24;;;;;;;3.50;1.90;;;12.40;99.90;;;;;;5097220;28;20167;-69
2023/01/11 00:10:50;;;;;;;3.73;2.10;;;12.40;99.90;;;;;;5096686;28;20230;-69
2023/01/11 00:13:15;;;;;;;4.70;2.13;;;12.30;99.90;;;;;;5095546;28;20207;-70
2023/01/11 00:15:41;;;;;;;3.30;2.20;;;12.30;99.90;;;;;;5097081;28;20214;-69
2023/01/11 00:18:07;;;;;;;4.23;2.23;;;12.20;99.90;;;;;;5096900;28;20259;-69
2023/01/11 00:20:33;;;;;;;4.20;2.20;;;12.20;99.90;;;;;;5096864;28;20179;-69
2023/01/11 00:22:59;;;;;;;5.17;2.40;;;12.20;99.90;;;;;;5096848;28;20525;-70
2023/01/11 00:25:24;;;;;;;4.30;2.00;;;12.20;99.90;;;;;;5096432;28;20168;-69
2023/01/11 00:27:50;;;;;;;3.27;2.30;;;12.30;99.90;;;;;;5095193;28;20175;-69
2023/01/11 00:30:17;;;;;;;3.93;2.50;;;12.30;99.90;;;;;;5096872;28;20168;-69
2023/01/11 00:32:42;;;;;;;4.83;2.50;;;12.30;99.90;;;;;;5096632;28;20628;-69
2023/01/11 00:35:08;;;;;;;4.40;2.50;;;12.30;99.90;;;;;;5096508;28;20257;-69
2023/01/11 00:37:34;;;;;;;3.10;2.80;;;12.30;99.90;;;;;;5096438;28;20168;-69
2023/01/11 00:40:00;;;;;;;5.73;2.50;;;12.20;99.90;;;;;;5096385;28;20168;-68
2023/01/11 00:47:56;;;;;;;4.40;2.60;;;12.20;99.90;;;;;;5096297;28;20190;-69
2023/01/11 00:50:22;;;;;;;6.17;2.50;;;12.20;99.90;;;;;;5096365;28;20173;-69
2023/01/11 00:52:48;;;;;;;4.83;2.60;;;12.10;99.90;;;;;;5095791;28;20180;-69
2023/01/11 00:55:13;;;;;;;3.03;2.50;;;12.10;99.90;;;;;;5096241;28;20255;-68
2023/01/11 00:57:39;;;;;;;4.33;2.47;;;12.10;99.90;;;;;;5096057;28;20578;-68
2023/01/11 01:00:05;;;;;;;9.17;2.60;;;12.10;99.90;;;;;;5096058;28;20168;-68
2023/01/11 01:02:31;;;;;;;4.30;2.60;;;12.10;99.90;;;;;;5096091;28;20173;-69
2023/01/11 01:04:57;;;;;;;7.83;2.60;;;12.10;99.90;;;;;;5096073;28;20229;-69
2023/01/11 01:07:22;;;;;;;3.43;2.67;;;12.10;99.90;;;;;;5095619;28;20207;-69
2023/01/11 01:09:48;;;;;;;3.77;2.37;;;12.10;99.90;;;;;;5095679;28;20192;-69
2023/01/11 01:14:24;;;;;;;4.17;2.40;;;12.10;99.90;;;;;;5096015;28;20183;-69
2023/01/11 01:14:59;;;;;;;5.37;2.50;;;12.00;99.90;;;;;;5095719;28;20241;-69
2023/01/11 01:17:24;;;;;;;6.23;3.00;;;12.00;99.90;;;;;;5094361;28;20200;-69
2023/01/11 01:19:50;;;;;;;6.10;2.93;;;12.00;99.90;;;;;;5095521;28;20178;-69
2023/01/11 01:22:16;;;;;;;3.80;2.50;;;12.00;99.90;;;;;;5095522;28;20171;-68
2023/01/11 01:24:41;;;;;;;3.60;2.40;;;12.00;99.90;;;;;;5095797;28;20686;-68
2023/01/11 01:27:07;;;;;;;4.03;2.60;;;12.00;99.90;;;;;;5095484;28;20179;-69
2023/01/11 01:29:32;;;;;;;2.90;2.60;;;12.10;99.90;;;;;;5095620;28;20187;-68
2023/01/11 01:31:58;;;;;;;3.73;2.40;;;12.00;99.90;;;;;;5095427;28;20176;-68
2023/01/11 01:34:24;;;;;;;5.90;2.33;;;12.00;99.90;;;;;;5095392;28;20340;-68
2023/01/11 01:36:49;;;;;;;5.07;2.27;;;12.00;99.90;;;;;;5094898;28;20655;-69
2023/01/11 01:39:15;;;;;;;5.60;2.23;;;12.10;99.90;;;;;;5095473;28;20183;-68
2023/01/11 01:41:41;;;;;;;5.93;2.63;;;12.10;99.90;;;;;;5095250;28;20172;-68
2023/01/11 01:45:01;;;;;;;5.60;2.00;;;12.10;99.90;;;;;;5094878;28;20294;-68
2023/01/11 01:47:34;;;;;;;2.10;1.83;;;12.10;99.90;;;;;;5032849;28;20178;-69
2023/01/11 01:50:08;;;;;;;2.57;1.53;;;12.10;99.90;;;;;;5032966;28;20182;-69
2023/01/11 01:52:35;;;;;;;2.43;1.63;;;12.10;99.90;;;;;;5032561;28;20236;-69
2023/01/11 01:55:05;;;;;;;3.77;1.97;;;12.20;99.90;;;;;;5032721;28;20267;-69
2023/01/11 01:57:33;;;;;;;2.50;1.53;;;12.20;99.90;;;;;;5032611;28;20178;-69
2023/01/11 02:00:03;;;;;;;2.77;1.63;;;12.30;99.90;;;;;;5032763;28;20257;-69
2023/01/11 02:02:28;;;;;;;4.47;1.57;;;12.30;99.90;;;;;;5032798;28;20577;-68
2023/01/11 02:04:56;;;;;;;2.23;1.20;;;12.30;99.90;;;;;;5032565;28;20182;-69
2023/01/11 02:07:29;;;;;;;1.77;1.30;;;12.30;99.90;;;;;;5032244;28;20193;-69
2023/01/11 02:10:08;;;;;;;3.40;1.70;;;12.40;99.90;;;;;;5032267;28;20190;-69
2023/01/11 02:12:48;;;;;;;1.73;1.07;;;12.40;99.90;;;;;;5032547;28;20216;-68
2023/01/11 02:15:17;;;;;;;3.07;1.20;;;12.40;99.90;;;;;;5032585;28;20218;-68
2023/01/11 02:17:43;;;;;;;2.77;1.20;;;12.50;99.90;;;;;;5032353;28;20576;-69
2023/01/11 02:20:36;;;;;;;1.90;1.20;;;12.50;99.90;;;;;;5039272;28;20174;-69
2023/01/11 02:23:07;;;;;;;3.43;1.13;;;12.50;99.90;;;;;;5093933;28;20180;-67
2023/01/11 02:26:16;;;;;;;1.83;1.00;;;12.60;99.90;;;;;;5094552;28;20247;-68
2023/01/11 02:28:53;;;;;;;1.20;1.10;;;12.60;99.90;;;;;;5093515;28;20196;-69
2023/01/11 02:31:44;;;;;;;2.73;1.20;;;12.60;99.90;;;;;;5094566;28;20171;-68
2023/01/11 02:34:36;;;;;;;1.33;0.90;;;12.50;99.90;;;;;;5031998;28;20190;-68
2023/01/11 02:37:27;;;;;;;2.43;1.07;;;12.50;99.90;;;;;;5031806;28;20239;-68
2023/01/11 02:40:05;;;;;;;2.50;1.43;;;12.50;99.90;;;;;;5032073;28;20193;-68
2023/01/11 02:45:51;;;;;;;1.13;1.03;;;12.60;99.90;;;;;;5032334;28;20204;-68
2023/01/11 02:48:48;;;;;;;1.70;1.00;;;12.50;99.90;;;;;;5031768;28;20201;-69
2023/01/11 02:51:22;;;;;;;1.63;0.93;;;12.50;99.90;;;;;;5031831;28;20209;-69
2023/01/11 02:54:03;;;;;;;2.30;1.30;;;12.40;99.90;;;;;;5031831;28;20202;-69
2023/01/11 02:56:33;;;;;;;2.43;1.20;;;12.40;99.90;;;;;;5031779;28;20181;-69
2023/01/11 02:59:01;;;;;;;1.47;1.03;;;12.40;99.90;;;;;;5031723;28;20228;-68
2023/01/11 03:01:26;;;;;;;1.70;0.90;;;12.40;99.90;;;;;;5031645;28;20212;-68
2023/01/11 03:03:52;;;;;;;1.47;0.90;;;12.40;99.90;;;;;;5031176;28;20220;-69
2023/01/11 03:06:34;;;;;;;2.17;1.37;;;12.40;99.90;;;;;;5032005;28;20645;-68
2023/01/11 03:09:17;;;;;;;4.03;1.50;;;12.40;99.90;;;;;;5031478;28;20264;-69
2023/01/11 03:14:55;;;;;;;1.43;1.23;;;12.40;99.90;;;;;;5031500;28;20719;-69
2023/01/11 03:17:30;;;;;;;1.57;1.20;;;12.30;99.90;;;;;;5031271;28;20166;-69
2023/01/11 03:20:04;;;;;;;1.03;1.00;;;12.40;99.90;;;;;;5031172;28;20181;-69
2023/01/11 03:22:34;;;;;;;3.20;1.20;;;12.30;99.90;;;;;;5031443;28;20174;-69
2023/01/11 03:25:24;;;;;;;3.23;1.20;;;12.30;99.90;;;;;;5031228;28;20186;-68
2023/01/11 03:28:07;;;;;;;0.90;0.90;;;12.30;99.90;;;;;;5031084;28;20173;-68
2023/01/11 03:30:56;;;;;;;0.90;0.90;;;12.30;99.90;;;;;;5031381;28;20169;-69
2023/01/11 03:33:35;;;;;;;2.07;1.10;;;12.20;99.90;;;;;;5030769;28;20197;-69
2023/01/11 03:36:17;;;;;;;2.77;1.03;;;12.20;99.90;;;;;;5031185;28;20221;-67
2023/01/11 03:38:59;;;;;;;1.10;1.00;;;12.30;99.90;;;;;;5031193;28;20178;-67
2023/01/11 03:41:32;;;;;;;1.77;1.00;;;12.20;99.90;;;;;;5030963;28;20268;-68
2023/01/11 03:44:00;;;;;;;1.10;1.10;;;12.30;99.90;;;;;;5030719;28;20587;-69
2023/01/11 03:46:28;;;;;;;1.53;0.97;;;12.30;99.90;;;;;;5031054;28;20169;-67
2023/01/11 03:49:25;;;;;;;0.80;0.80;;;12.20;99.90;;;;;;5030625;28;20247;-68
2023/01/11 03:51:55;;;;;;;1.47;1.20;;;12.20;99.90;;;;;;5066610;28;20184;-68
2023/01/11 03:54:24;;;;;;;1.00;1.00;;;12.30;99.90;;;;;;5093299;28;20261;-68
2023/01/11 03:56:57;;;;;;;1.87;1.00;;;12.30;99.90;;;;;;5093157;28;20211;-68
2023/01/11 03:59:24;;;;;;;1.17;1.00;;;12.30;99.90;;;;;;5093641;28;20258;-68
2023/01/11 04:01:52;;;;;;;1.80;1.00;;;12.30;99.90;;;;;;5092888;28;20176;-69
2023/01/11 04:04:18;;;;;;;0.97;0.90;;;12.30;99.90;;;;;;5093142;28;20263;-70
2023/01/11 04:06:43;;;;;;;2.33;1.00;;;12.30;99.90;;;;;;5092945;28;20266;-67
2023/01/11 04:09:09;;;;;;;1.30;1.00;;;12.30;99.90;;;;;;5093131;28;20187;-69
2023/01/11 04:11:34;;;;;;;1.30;1.20;;;12.30;99.90;;;;;;5092986;28;20196;-69
2023/01/11 04:14:00;;;;;;;1.07;0.97;;;12.30;99.90;;;;;;5092728;28;20176;-69
2023/01/11 04:16:26;;;;;;;1.33;1.20;;;12.30;99.90;;;;;;5092741;28;20222;-68
2023/01/11 04:18:51;;;;;;;1.53;1.13;;;12.30;99.90;;;;;;5092722;28;20218;-68
2023/01/11 04:21:17;;;;;;;1.40;1.20;;;12.30;99.90;;;;;;5092697;28;20203;-67
2023/01/11 04:23:43;;;;;;;1.33;0.93;;;12.30;99.90;;;;;;5092804;28;20200;-68
2023/01/11 04:26:08;;;;;;;0.93;0.90;;;12.30;99.90;;;;;;5092847;28;20172;-69
2023/01/11 04:28:34;;;;;;;0.70;0.67;;;12.30;99.90;;;;;;5092736;28;20180;-70
2023/01/11 04:31:00;;;;;;;0.60;0.60;;;12.20;99.90;;;;;;5092322;28;20184;-68
2023/01/11 04:33:25;;;;;;;0.63;0.63;;;12.20;99.90;;;;;;5092462;28;20646;-69
2023/01/11 04:35:51;;;;;;;0.60;0.60;;;12.20;99.90;;;;;;5092512;28;20203;-68
2023/01/11 04:38:17;;;;;;;0.60;0.60;;;12.10;99.90;;;;;;5092471;28;20665;-68
2023/01/11 04:40:43;;;;;;;0.60;0.60;;;12.10;99.90;;;;;;5092900;28;20175;-68
2023/01/11 04:43:08;;;;;;;0.70;0.70;;;12.10;99.90;;;;;;5091999;28;20540;-69
2023/01/11 04:45:34;;;;;;;0.80;0.80;;;12.00;99.90;;;;;;5093857;28;20635;-69
2023/01/11 04:48:00;;;;;;;1.17;0.97;;;12.00;99.90;;;;;;5096018;28;20172;-69
2023/01/11 04:50:26;;;;;;;1.03;0.80;;;12.00;99.90;;;;;;5096116;28;20510;-69
2023/01/11 04:52:52;;;;;;;0.90;0.90;;;12.10;99.90;;;;;;5096194;28;20182;-68
2023/01/11 04:55:18;;;;;;;0.80;0.80;;;12.10;99.90;;;;;;5095641;28;20667;-69
2023/01/11 04:57:45;;;;;;;0.80;0.80;;;12.10;99.90;;;;;;5095744;28;20175;-69
2023/01/11 05:00:11;;;;;;;1.10;1.10;;;12.20;99.90;;;;;;5095286;28;20172;-69
2023/01/11 05:02:38;;;;;;;1.10;1.10;;;12.20;99.90;;;;;;5095771;28;20680;-69
2023/01/11 05:05:05;;;;;;;1.47;1.10;;;12.10;99.90;;;;;;5094939;28;20191;-70
2023/01/11 05:07:31;;;;;;;2.27;1.20;;;12.10;99.90;;;;;;5094312;28;20535;-69
2023/01/11 05:09:56;;;;;;;1.27;1.10;;;12.10;99.90;;;;;;5095429;28;20188;-69
2023/01/11 05:12:22;;;;;;;1.37;1.00;;;12.10;99.90;;;;;;5095715;28;20555;-69
2023/01/11 05:14:47;;;;;;;3.10;1.20;;;12.00;99.90;;;;;;5094881;28;20208;-70
2023/01/11 05:17:14;;;;;;;1.80;1.03;;;12.00;99.90;;;;;;5095383;28;20164;-68
2023/01/11 05:19:40;;;;;;;3.90;1.50;;;12.00;99.90;;;;;;5095810;28;20184;-69
2023/01/11 05:22:07;;;;;;;2.70;1.57;;;12.00;99.90;;;;;;5095604;28;20172;-70
2023/01/11 05:24:32;;;;;;;4.03;1.70;;;12.00;99.90;;;;;;5094986;28;20631;-69
2023/01/11 05:26:58;;;;;;;4.83;1.53;;;12.00;99.90;;;;;;5095502;28;20172;-68
2023/01/11 05:29:23;;;;;;;2.10;1.50;;;11.90;99.90;;;;;;5095097;28;20172;-69
2023/01/11 05:31:49;;;;;;;4.50;1.60;;;11.90;99.90;;;;;;5095063;28;20634;-69
2023/01/11 05:34:16;;;;;;;5.50;1.90;;;11.90;99.90;;;;;;5095434;28;20195;-71
2023/01/11 05:36:42;;;;;;;5.87;1.70;;;11.80;99.90;;;;;;5094806;28;20232;-69
2023/01/11 05:39:09;;;;;;;9.43;2.17;;;11.80;99.90;;;;;;5095048;28;20623;-70
2023/01/11 05:41:35;;;;;;;5.10;2.03;;;11.80;99.90;;;;;;5095124;28;20179;-68
2023/01/11 05:46:45;;;;;;;8.87;2.30;;;11.80;99.90;;;;;;5095157;28;20175;-69
2023/01/11 05:49:12;;;;;;;8.20;2.30;;;11.70;99.90;;;;;;5094927;28;20172;-70
2023/01/11 05:51:38;;;;;;;10.00;2.93;;;11.70;99.90;;;;;;5094519;28;20233;-69
2023/01/11 05:54:06;;;;;;;5.27;2.20;;;11.60;99.90;;;;;;5094031;28;20187;-68
2023/01/11 05:56:32;;;;;;;7.90;2.43;;;11.60;99.90;;;;;;5093417;28;20179;-69
2023/01/11 05:58:57;;;;;;;15.60;2.40;;;11.70;99.90;;;;;;5093949;28;20254;-69
2023/01/11 06:01:24;;;;;;;10.63;2.80;;;11.70;99.90;;;;;;5094076;28;20195;-70
2023/01/11 06:03:50;;;;;;;14.83;3.13;;;11.60;99.90;;;;;;5094359;28;20229;-69
2023/01/11 06:06:17;;;;;;;13.40;3.00;;;11.70;99.90;;;;;;5094240;28;20232;-70
2023/01/11 06:08:43;;;;;;;11.87;3.37;;;11.60;99.90;;;;;;5094365;28;20172;-70
2023/01/11 06:11:08;;;;;;;13.70;3.63;;;11.50;99.90;;;;;;5093464;28;20241;-70
2023/01/11 06:13:34;;;;;;;14.33;3.00;;;11.50;99.90;;;;;;5093735;28;20211;-70
2023/01/11 06:16:09;;;;;;;11.17;3.40;;;11.50;99.90;;;;;;5094111;28;20290;-69
2023/01/11 06:18:37;;;;;;;15.63;3.40;;;11.50;99.90;;;;;;5094059;28;20163;-69
2023/01/11 06:21:04;;;;;;;14.67;3.37;;;11.40;99.90;;;;;;5093570;28;20190;-70
2023/01/11 06:23:31;;;;;;;12.37;3.43;;;11.40;99.90;;;;;;5093952;28;20182;-70
2023/01/11 06:26:01;;;;;;;17.87;3.50;;;11.50;99.90;;;;;;5093302;28;20180;-69
2023/01/11 06:28:26;;;;;;;20.73;4.13;;;11.60;99.90;;;;;;5093702;28;20613;-69
2023/01/11 06:30:54;;;;;;;14.53;4.10;;;11.70;99.90;;;;;;5093568;28;20200;-68
2023/01/11 06:33:22;;;;;;;16.27;3.70;;;11.60;99.90;;;;;;5093603;28;20163;-70
2023/01/11 06:35:47;;;;;;;16.70;3.90;;;11.50;99.90;;;;;;5093166;28;20298;-70
2023/01/11 06:38:14;;;;;;;19.83;3.70;;;11.50;99.90;;;;;;5093491;28;20317;-70
2023/01/11 06:40:41;;;;;;;16.73;4.03;;;11.50;99.90;;;;;;5093048;28;20245;-70
2023/01/11 06:43:08;;;;;;;15.10;3.40;;;11.40;99.90;;;;;;5092536;28;20175;-71
2023/01/11 06:45:37;;;;;;;19.43;3.23;;;11.40;99.90;;;;;;5093256;28;20192;-70
2023/01/11 06:48:03;;;;;;;17.07;4.20;;;11.40;99.90;;;;;;5093146;28;20176;-70
2023/01/11 06:50:29;;;;;;;19.80;3.93;;;11.40;99.90;;;;;;5092725;28;20176;-70
2023/01/11 06:52:57;;;;;;;12.33;3.30;;;11.30;99.90;;;;;;5092350;28;20594;-68
2023/01/11 06:55:24;;;;;;;16.37;3.70;;;11.30;99.90;;;;;;5092433;28;20276;-70
2023/01/11 06:57:50;;;;;;;14.83;3.40;;;11.30;99.90;;;;;;5091061;28;20527;-69
2023/01/11 07:00:17;;;;;;;15.67;4.00;;;11.20;99.90;;;;;;5092073;28;20255;-70
2023/01/11 07:02:43;;;;;;;10.50;3.20;;;11.20;99.90;;;;;;5092458;28;20172;-69
2023/01/11 07:05:09;;;;;;;14.37;3.20;;;11.20;99.90;;;;;;5092219;28;20276;-70
2023/01/11 07:07:35;;;;;;;12.77;3.57;;;11.10;99.90;;;;;;5092147;28;20592;-70
2023/01/11 07:10:01;;;;;;;21.50;3.70;;;11.20;99.90;;;;;;5091690;28;20282;-70
2023/01/11 07:12:27;;;;;;;16.37;3.60;;;11.20;99.90;;;;;;5091859;28;20250;-69
2023/01/11 07:14:52;;;;;;;14.13;3.50;;;11.10;99.90;;;;;;5092029;28;20299;-70
2023/01/11 07:17:18;;;;;;;17.47;4.10;;;11.00;99.90;;;;;;5092007;28;20259;-67
2023/01/11 07:19:43;;;;;;;11.57;3.03;;;10.90;99.90;;;;;;5092269;28;20180;-68
2023/01/11 07:22:09;;;;;;;16.07;3.60;;;10.90;99.90;;;;;;5092219;28;20507;-68
2023/01/11 07:24:34;;;;;;;14.47;3.83;;;10.90;99.90;;;;;;5091847;28;20224;-69
2023/01/11 07:27:01;;;;;;;15.90;3.43;;;10.80;99.90;;;;;;5091766;28;20204;-68
2023/01/11 07:29:28;;;;;;;16.77;3.40;;;10.70;99.90;;;;;;5091864;28;20187;-68
2023/01/11 07:31:53;;;;;;;18.43;3.33;;;10.80;99.90;;;;;;5092367;28;20194;-69
2023/01/11 07:34:19;;;;;;;15.50;3.20;;;10.80;99.90;;;;;;5086190;28;20184;-68
2023/01/11 07:36:45;;;;;;;19.63;4.07;;;10.70;99.90;;;;;;5069174;28;20203;-69
2023/01/11 07:39:10;;;;;;;15.77;3.67;;;10.70;99.90;;;;;;5070844;28;20196;-69
2023/01/11 07:44:20;;;;;;;18.37;3.53;;;10.60;99.90;;;;;;5071208;28;20223;-70
2023/01/11 07:46:46;;;;;;;14.50;3.50;;;10.60;99.90;;;;;;5071855;28;20175;-68
2023/01/11 07:49:12;;;;;;;15.97;3.43;;;10.60;99.90;;;;;;5072323;28;20662;-68
2023/01/11 07:51:37;;;;;;;11.97;3.60;;;10.50;99.90;;;;;;5077106;28;20640;-68
2023/01/11 07:54:03;;;;;;;14.80;3.37;;;10.40;99.90;;;;;;5076253;28;20176;-69
2023/01/11 07:56:29;;;;;;;15.60;3.23;;;10.40;99.90;;;;;;5071686;28;20659;-69
2023/01/11 07:58:55;;;;;;;21.87;3.90;;;10.40;99.90;;;;;;5072830;28;20662;-69
2023/01/11 08:01:22;;;;;;;18.13;3.90;;;10.30;99.90;;;;;;5078988;28;20234;-69
2023/01/11 08:03:48;;;;;;;13.83;3.70;;;10.30;99.90;;;;;;5076089;28;20176;-68
2023/01/11 08:06:13;;;;;;;12.53;3.07;;;10.20;99.90;;;;;;5077674;28;20179;-69
2023/01/11 08:08:40;;;;;;;21.03;3.70;;;10.20;99.90;;;;;;5090142;28;20226;-69
2023/01/11 08:16:34;;;;;;;18.60;3.77;;;10.10;99.90;;;;;;5080837;28;20253;-69
2023/01/11 08:19:00;;;;;;;17.43;3.67;;;10.10;99.90;;;;;;5083284;28;20168;-69
2023/01/11 08:21:26;;;;;;;15.37;3.53;;;10.10;99.90;;;;;;5090124;28;20179;-69
2023/01/11 08:23:56;;;;;;;19.53;3.73;;;10.10;99.90;;;;;;5103952;28;20183;-69
2023/01/11 08:26:23;;;;;;;21.77;3.80;;;10.10;99.90;;;;;;5094985;28;20272;-68
2023/01/11 08:28:48;;;;;;;17.73;3.83;;;10.10;99.90;;;;;;5099374;28;20199;-68
2023/01/11 08:31:14;;;;;;;16.40;3.50;;;10.20;99.90;;;;;;5106178;28;20207;-70
2023/01/11 08:33:40;;;;;;;19.83;3.83;;;10.20;99.90;;;;;;5092639;28;20179;-69
2023/01/11 08:36:07;;;;;;;16.40;4.07;;;10.20;99.90;;;;;;5115475;28;20303;-68
2023/01/11 08:38:32;;;;;;;17.77;3.90;;;10.20;99.90;;;;;;5098637;28;20172;-67
2023/01/11 08:40:58;;;;;;;20.67;3.87;;;10.10;99.90;;;;;;5110665;28;20209;-68
2023/01/11 08:43:24;;;;;;;15.60;3.97;;;10.10;99.90;;;;;;5108610;28;20200;-68
2023/01/11 08:45:50;;;;;;;22.23;4.57;;;10.20;99.90;;;;;;5094542;28;20182;-68
2023/01/11 08:48:16;;;;;;;18.17;4.53;;;10.20;99.90;;;;;;5106064;28;20167;-67
2023/01/11 08:50:43;;;;;;;16.33;4.37;;;10.20;99.90;;;;;;5105194;28;20175;-69
2023/01/11 08:53:11;;;;;;;15.03;3.70;;;10.20;99.90;;;;;;5106836;28;20220;-69
2023/01/11 08:55:36;;;;;;;16.37;3.20;;;10.20;99.90;;;;;;5100111;28;20203;-71
2023/01/11 08:58:02;;;;;;;18.23;3.60;;;10.10;99.90;;;;;;5105923;28;20189;-69
2023/01/11 09:00:28;;;;;;;17.13;3.77;;;10.10;99.90;;;;;;5099910;28;20219;-68
2023/01/11 09:02:53;;;;;;;12.67;3.77;;;10.20;99.90;;;;;;5114343;28;20178;-68
2023/01/11 09:05:19;;;;;;;22.03;4.03;;;10.40;99.90;;;;;;5114441;28;20618;-69
2023/01/11 09:07:45;;;;;;;17.70;3.70;;;10.40;99.90;;;;;;5076372;28;20647;-68
2023/01/11 09:10:11;;;;;;;19.37;4.10;;;10.40;99.90;;;;;;5075154;28;20212;-69
2023/01/11 09:12:36;;;;;;;20.33;3.87;;;10.40;99.90;;;;;;5078354;28;20221;-69
2023/01/11 09:15:04;;;;;;;18.57;4.23;;;10.50;99.90;;;;;;5084749;28;20222;-68
2023/01/11 09:17:30;;;;;;;22.70;4.13;;;10.60;99.90;;;;;;5075190;28;20171;-69
2023/01/11 09:19:55;;;;;;;18.07;3.80;;;10.70;99.90;;;;;;5080876;28;20264;-71
2023/01/11 09:22:21;;;;;;;15.23;4.30;;;10.70;99.90;;;;;;5074208;28;20184;-71
2023/01/11 09:24:47;;;;;;;22.17;4.17;;;10.90;99.90;;;;;;5074327;28;20173;-70
2023/01/11 09:27:13;;;;;;;21.17;4.00;;;11.30;99.90;;;;;;5073961;28;20169;-69
2023/01/11 09:29:38;;;;;;;15.27;4.40;;;11.70;99.90;;;;;;5108560;28;20175;-70
2023/01/11 09:32:04;;;;;;;17.00;4.33;;;12.00;99.90;;;;;;5114111;28;20622;-70
2023/01/11 09:34:30;;;;;;;22.10;4.53;;;12.10;99.90;;;;;;5114652;28;20226;-70
2023/01/11 09:36:58;;;;;;;20.73;4.70;;;12.40;99.90;;;;;;5113792;28;20214;-69
2023/01/11 09:39:26;;;;;;;16.40;4.20;;;12.70;99.90;;;;;;5114650;27;20177;-71
2023/01/11 09:42:30;;;;;;;16.40;4.60;;;13.20;99.90;;;;;;5098617;28;20179;-71
2023/01/11 09:45:13;;;;;;;14.83;4.17;;;14.00;99.90;;;;;;5093188;28;20246;-70
2023/01/11 09:47:43;;;;;;;14.30;3.73;;;15.00;99.90;;;;;;5092919;28;20179;-70
2023/01/11 09:50:22;;;;;;;13.93;3.77;;;15.50;99.90;;;;;;5093685;28;20278;-70
2023/01/11 09:52:56;;;;;;;14.65;3.72;;;15.70;99.90;;;;;;5074261;28;20229;-70
2023/01/11 09:55:41;;;;;;;13.30;3.58;;;15.50;99.90;;;;;;5087716;28;20208;-70
2023/01/11 09:58:14;;;;;;;16.95;3.88;;;15.80;99.90;;;;;;5094234;28;20316;-71
2023/01/11 10:01:01;;;;;;;16.67;4.05;;;16.20;99.90;;;;;;5091116;28;20635;-70
2023/01/11 10:03:42;;;;;;;15.82;4.15;;;16.70;99.90;;;;;;5093134;28;20258;-70
2023/01/11 10:06:18;;;;;;;18.60;4.57;;;16.10;99.90;;;;;;5082276;28;20613;-71
2023/01/11 10:08:50;;;;;;;18.40;4.63;;;16.00;99.90;;;;;;5073608;28;20180;-71
2023/01/11 10:11:48;;;;;;;12.77;4.13;;;15.90;99.90;;;;;;5082972;28;20214;-71
2023/01/11 10:14:26;;;;;;;15.70;4.10;;;16.20;99.90;;;;;;5078671;28;20223;-70
2023/01/11 10:16:59;;;;;;;11.90;3.65;;;15.70;99.90;;;;;;5087118;28;20175;-70
2023/01/11 10:19:37;;;;;;;10.90;3.97;;;15.60;99.90;;;;;;5109610;28;20174;-70
2023/01/11 10:22:17;;;;;;;16.50;4.28;;;16.00;99.90;;;;;;5103988;28;20202;-71
2023/01/11 10:24:48;;;;;;;18.42;4.38;;;15.80;99.90;;;;;;5108917;28;20174;-70
2023/01/11 10:27:26;;;;;;;18.02;4.25;;;15.90;99.90;;;;;;5096436;28;20622;-71
2023/01/11 10:30:11;;;;;;;15.32;4.03;;;16.20;99.90;;;;;;5104957;28;20203;-71
2023/01/11 10:35:44;;;;;;;15.32;4.20;;;16.40;99.90;;;;;;5089774;28;20214;-71
2023/01/11 10:41:24;;;;;;;19.40;4.20;;;16.70;99.90;;;;;;5104405;28;20183;-72
2023/01/11 10:44:18;;;;;;;15.65;4.00;;;16.50;99.90;;;;;;5108542;28;20214;-71
2023/01/11 10:46:51;;;;;;;16.33;4.13;;;16.30;99.90;;;;;;5103084;28;20297;-71
2023/01/11 10:49:29;;;;;;;15.15;4.32;;;16.30;99.90;;;;;;5095516;28;20220;-71
2023/01/11 10:52:02;;;;;;;12.43;4.15;;;16.10;99.90;;;;;;5103468;28;20238;-70
2023/01/11 10:54:35;;;;;;;13.60;4.10;;;16.00;99.90;;;;;;5105985;28;20167;-71
2023/01/11 10:57:21;;;;;;;19.02;4.30;;;15.60;99.90;;;;;;5095668;28;20574;-72
2023/01/11 10:59:55;;;;;;;13.73;4.55;;;15.90;99.90;;;;;;5105301;28;20176;-70
2023/01/11 11:02:55;;;;;;;11.48;3.95;;;16.30;99.90;;;;;;5104691;28;20164;-71
2023/01/11 11:05:23;;;;;;;12.95;4.05;;;16.70;99.90;;;;;;5084199;28;20179;-70
2023/01/11 11:07:56;;;;;;;15.10;4.13;;;16.70;99.90;;;;;;5100456;28;20175;-71
2023/01/11 11:10:34;;;;;;;15.65;4.45;;;16.20;99.90;;;;;;5100020;28;20196;-72
2023/01/11 11:13:02;;;;;;;18.13;4.47;;;16.60;99.90;;;;;;5109206;28;20213;-72
2023/01/11 11:15:42;;;;;;;17.92;5.00;;;16.20;99.90;;;;;;5096945;28;20284;-72
2023/01/11 11:18:08;;;;;;;14.40;4.35;;;16.30;99.90;;;;;;5101406;28;20178;-72
2023/01/11 11:20:37;;;;;;;13.90;4.15;;;16.00;99.90;;;;;;5106394;28;20182;-70
2023/01/11 11:23:02;;;;;;;16.42;4.20;;;15.80;99.90;;;;;;5095332;28;20172;-70
2023/01/11 11:25:37;;;;;;;15.50;3.80;;;15.50;99.90;;;;;;5107544;28;20572;-70
2023/01/11 11:28:13;;;;;;;15.93;4.60;;;15.50;99.90;;;;;;5101635;28;20175;-70
2023/01/11 11:30:42;;;;;;;20.73;4.68;;;15.60;99.90;;;;;;5097458;28;20634;-71
2023/01/11 11:33:35;;;;;;;16.95;4.25;;;15.10;99.90;;;;;;5083174;28;20191;-70
2023/01/11 11:36:04;;;;;;;18.87;4.00;;;14.70;99.90;;;;;;5097474;28;20215;-68
2023/01/11 11:38:35;;;;;;;18.57;4.10;;;14.30;99.90;;;;;;5092074;28;20179;-69
2023/01/11 11:41:10;;;;;;;17.27;4.90;;;14.10;99.90;;;;;;5108986;28;20630;-70
2023/01/11 11:43:38;;;;;;;19.77;4.50;;;14.20;99.90;;;;;;5097298;28;20238;-69
2023/01/11 11:46:26;;;;;;;18.20;4.23;;;13.70;99.90;;;;;;5102017;28;20203;-71
2023/01/11 11:49:15;;;;;;;23.80;5.03;;;13.60;99.90;;;;;;5107836;28;20167;-69
2023/01/11 11:51:43;;;;;;;27.83;5.00;;;13.20;99.90;;;;;;5084804;28;20183;-69
2023/01/11 11:54:19;;;;;;;21.63;4.30;;;13.30;99.90;;;;;;5089275;28;20180;-69
2023/01/11 11:56:46;;;;;;;18.90;4.73;;;13.30;99.90;;;;;;5094288;28;20218;-71
2023/01/11 11:59:16;;;;;;;27.50;4.97;;;13.40;99.90;;;;;;5111547;28;20306;-70
2023/01/11 12:01:45;;;;;;;15.63;4.37;;;13.20;99.90;;;;;;5090150;28;20184;-69
2023/01/11 12:04:21;;;;;;;18.03;4.30;;;13.20;99.90;;;;;;5089412;28;20175;-70
2023/01/11 12:07:03;;;;;;;19.33;4.80;;;13.10;99.90;;;;;;5090982;28;20187;-69
2023/01/11 12:09:31;;;;;;;22.43;5.23;;;13.20;99.90;;;;;;5085572;28;20194;-70
2023/01/11 12:11:58;;;;;;;17.77;4.70;;;13.50;99.90;;;;;;5100211;28;20218;-71
2023/01/11 12:14:29;;;;;;;15.13;4.40;;;13.40;99.90;;;;;;5103511;28;20167;-71
2023/01/11 12:16:57;;;;;;;19.37;4.53;;;13.40;99.90;;;;;;5111887;28;20178;-72
2023/01/11 12:19:42;;;;;;;22.87;6.30;;;13.30;99.90;;;;;;5097075;28;20195;-69
2023/01/11 12:22:25;;;;;;;77.33;40.93;;;13.30;99.90;;;;;;5084713;28;20509;-69
2023/01/11 12:25:24;;;;;;;24.03;6.27;;;13.60;99.90;;;;;;5101636;28;20187;-70
2023/01/11 12:28:17;;;;;;;27.37;13.10;;;13.60;99.90;;;;;;5094617;28;20712;-70
2023/01/11 12:31:18;;;;;;;18.23;4.90;;;13.40;99.90;;;;;;5109337;28;20190;-71
2023/01/11 12:33:58;;;;;;;21.17;6.20;;;13.10;99.90;;;;;;5089693;28;20184;-72
2023/01/11 12:36:42;;;;;;;24.73;5.20;;;13.00;99.90;;;;;;5083547;28;20239;-70
2023/01/11 12:39:27;;;;;;;19.87;4.30;;;12.90;99.90;;;;;;5091931;28;20176;-70
2023/01/11 12:42:11;;;;;;;28.40;7.30;;;12.80;99.90;;;;;;5083896;28;20226;-71
2023/01/11 12:45:15;;;;;;;22.13;7.13;;;12.50;99.90;;;;;;5097809;28;20208;-70
2023/01/11 12:48:15;;;;;;;16.10;5.20;;;12.50;99.90;;;;;;5013768;28;20189;-70
2023/01/11 12:50:40;;;;;;;20.80;5.53;;;12.50;99.90;;;;;;4995764;28;20282;-71
2023/01/11 12:53:11;;;;;;;22.27;8.67;;;12.60;99.90;;;;;;5001545;28;20179;-71
2023/01/11 12:55:43;;;;;;;18.50;4.67;;;12.50;99.90;;;;;;5018708;28;20209;-70
2023/01/11 12:58:21;;;;;;;19.83;5.30;;;12.40;99.90;;;;;;5013462;28;20182;-70
2023/01/11 13:01:06;;;;;;;25.87;5.10;;;12.50;99.90;;;;;;5004307;28;20223;-69
2023/01/11 13:03:53;;;;;;;22.30;7.30;;;12.60;99.90;;;;;;5012363;28;20214;-70
2023/01/11 13:06:30;;;;;;;20.33;8.90;;;12.60;99.90;;;;;;5010733;28;20182;-69
2023/01/11 13:09:05;;;;;;;23.03;5.67;;;12.40;99.90;;;;;;5011895;28;20197;-70
2023/01/11 13:11:56;;;;;;;17.40;3.93;;;12.40;99.90;;;;;;5010922;28;20209;-70
2023/01/11 13:14:26;;;;;;;19.03;5.17;;;12.40;99.90;;;;;;5017360;28;20593;-69
2023/01/11 13:17:01;;;;;;;14.77;4.77;;;12.40;99.90;;;;;;5011275;28;20206;-70
2023/01/11 13:19:37;;;;;;;15.13;3.70;;;12.40;99.90;;;;;;5001568;28;20178;-68
2023/01/11 13:22:09;;;;;;;12.07;3.80;;;12.30;99.90;;;;;;5012889;28;20182;-70
2023/01/11 13:24:36;;;;;;;16.47;3.77;;;12.20;99.90;;;;;;5080917;28;20188;-71
2023/01/11 13:27:04;;;;;;;16.50;4.57;;;12.20;99.90;;;;;;5074258;28;20628;-71
2023/01/11 13:29:40;;;;;;;15.27;3.37;;;12.10;99.90;;;;;;5079185;28;20715;-70